OAL320 LICJ-LGKR
Flight info
| Callsign | OAL320 |
|---|---|
| Flight time | 0h 55m |
| Altitude | 33000 |
| Route | ROSAS DCT CRN L869 LATAN |
| Aircraft | A20N/M-SDE2E3FGHIRWXY/LB1 |
Departure
| Time | 2026-05-01 14:31 |
|---|---|
| Airport | Falcone–Borsellino Airport (LICJ) |
Arrival
| Time | 2026-05-01 15:27 |
|---|---|
| Airport | Corfu Ioannis Kapodistrias International Airport (LGKR) |
| Time | Latitude | Longitude | Altitude | Speed | Heading |
|---|---|---|---|---|---|
| 2026-05-01 14:17 | 38.18531 | 13.10557 | 65 ft | 0 kts | 337° |
| 2026-05-01 14:20 | 38.18528 | 13.10559 | 65 ft | 1 kts | 337° |
| 2026-05-01 14:20 | 38.18514 | 13.10567 | 57 ft | 1 kts | 337° |
| 2026-05-01 14:20 | 38.18506 | 13.10570 | 56 ft | 1 kts | 337° |
| 2026-05-01 14:21 | 38.18499 | 13.10574 | 57 ft | 1 kts | 337° |
| 2026-05-01 14:21 | 38.18492 | 13.10578 | 56 ft | 1 kts | 337° |
| 2026-05-01 14:21 | 38.18485 | 13.10582 | 57 ft | 1 kts | 337° |
| 2026-05-01 14:22 | 38.18471 | 13.10590 | 55 ft | 1 kts | 303° |
| 2026-05-01 14:22 | 38.18468 | 13.10599 | 55 ft | 1 kts | 265° |
| 2026-05-01 14:22 | 38.18468 | 13.10604 | 55 ft | 0 kts | 246° |
| 2026-05-01 14:23 | 38.18465 | 13.10597 | 55 ft | 3 kts | 246° |
| 2026-05-01 14:23 | 38.18447 | 13.10548 | 60 ft | 8 kts | 242° |
| 2026-05-01 14:23 | 38.18390 | 13.10502 | 56 ft | 12 kts | 199° |
| 2026-05-01 14:24 | 38.18317 | 13.10440 | 60 ft | 15 kts | 247° |
| 2026-05-01 14:24 | 38.18251 | 13.10371 | 65 ft | 13 kts | 155° |
| 2026-05-01 14:24 | 38.18193 | 13.10305 | 62 ft | 14 kts | 246° |
| 2026-05-01 14:24 | 38.18153 | 13.10183 | 62 ft | 15 kts | 247° |
| 2026-05-01 14:25 | 38.18106 | 13.10041 | 61 ft | 19 kts | 246° |
| 2026-05-01 14:25 | 38.18048 | 13.09871 | 61 ft | 23 kts | 246° |
| 2026-05-01 14:25 | 38.17982 | 13.09674 | 58 ft | 26 kts | 247° |
| 2026-05-01 14:25 | 38.17916 | 13.09477 | 61 ft | 20 kts | 246° |
| 2026-05-01 14:26 | 38.17860 | 13.09308 | 72 ft | 21 kts | 246° |
| 2026-05-01 14:26 | 38.17735 | 13.08964 | 62 ft | 23 kts | 239° |
| 2026-05-01 14:26 | 38.17647 | 13.08863 | 66 ft | 15 kts | 215° |
| 2026-05-01 14:27 | 38.17553 | 13.08782 | 65 ft | 18 kts | 214° |
| 2026-05-01 14:27 | 38.17438 | 13.08711 | 70 ft | 20 kts | 197° |
| 2026-05-01 14:27 | 38.17293 | 13.08651 | 63 ft | 24 kts | 197° |
| 2026-05-01 14:28 | 38.16962 | 13.08514 | 62 ft | 27 kts | 198° |
| 2026-05-01 14:28 | 38.16808 | 13.08452 | 65 ft | 16 kts | 196° |
| 2026-05-01 14:28 | 38.16714 | 13.08446 | 64 ft | 6 kts | 163° |
| 2026-05-01 14:28 | 38.16712 | 13.08447 | 57 ft | 0 kts | 163° |
| 2026-05-01 14:30 | 38.16643 | 13.08560 | 65 ft | 11 kts | 107° |
| 2026-05-01 14:30 | 38.16657 | 13.08589 | 64 ft | 0 kts | 24° |
| 2026-05-01 14:31 | 38.17291 | 13.08948 | 65 ft | 112 kts | 24° |
| 2026-05-01 14:31 | 38.18113 | 13.09397 | 269 ft | 142 kts | 25° |
| 2026-05-01 14:31 | 38.19058 | 13.09828 | 884 ft | 149 kts | 22° |
| 2026-05-01 14:31 | 38.20063 | 13.10350 | 1447 ft | 162 kts | 26° |
| 2026-05-01 14:32 | 38.21106 | 13.10998 | 1996 ft | 174 kts | 27° |
| 2026-05-01 14:32 | 38.22248 | 13.11692 | 2405 ft | 196 kts | 26° |
| 2026-05-01 14:32 | 38.23562 | 13.12458 | 2929 ft | 216 kts | 25° |
| 2026-05-01 14:32 | 38.24949 | 13.13247 | 3730 ft | 224 kts | 24° |
| 2026-05-01 14:33 | 38.26427 | 13.14110 | 4384 ft | 244 kts | 27° |
| 2026-05-01 14:33 | 38.27944 | 13.15142 | 5352 ft | 250 kts | 27° |
| 2026-05-01 14:33 | 38.29497 | 13.16193 | 6346 ft | 256 kts | 26° |
| 2026-05-01 14:33 | 38.31086 | 13.17263 | 7310 ft | 261 kts | 26° |
| 2026-05-01 14:34 | 38.32706 | 13.18356 | 8250 ft | 266 kts | 25° |
| 2026-05-01 14:34 | 38.34355 | 13.19469 | 9241 ft | 270 kts | 25° |
| 2026-05-01 14:34 | 38.36024 | 13.20598 | 10220 ft | 275 kts | 24° |
| 2026-05-01 14:34 | 38.37776 | 13.21778 | 10710 ft | 296 kts | 24° |
| 2026-05-01 14:35 | 38.39675 | 13.23054 | 11044 ft | 320 kts | 24° |
| 2026-05-01 14:35 | 38.41679 | 13.24408 | 11702 ft | 330 kts | 24° |
| 2026-05-01 14:35 | 38.43713 | 13.25791 | 12589 ft | 333 kts | 24° |
| 2026-05-01 14:35 | 38.45776 | 13.27193 | 13422 ft | 339 kts | 23° |
| 2026-05-01 14:36 | 38.47873 | 13.28617 | 14211 ft | 344 kts | 22° |
| 2026-05-01 14:36 | 38.50000 | 13.30061 | 14972 ft | 348 kts | 22° |
| 2026-05-01 14:36 | 38.52153 | 13.31522 | 15726 ft | 353 kts | 22° |
| 2026-05-01 14:36 | 38.54335 | 13.33002 | 16465 ft | 357 kts | 22° |
| 2026-05-01 14:37 | 38.56542 | 13.34501 | 17220 ft | 361 kts | 21° |
| 2026-05-01 14:37 | 38.58777 | 13.36020 | 17950 ft | 366 kts | 21° |
| 2026-05-01 14:37 | 38.61036 | 13.37556 | 18635 ft | 371 kts | 21° |
| 2026-05-01 14:37 | 38.63327 | 13.39117 | 19291 ft | 374 kts | 21° |
| 2026-05-01 14:38 | 38.65635 | 13.40690 | 19929 ft | 377 kts | 20° |
| 2026-05-01 14:38 | 38.67963 | 13.42278 | 20555 ft | 381 kts | 20° |
| 2026-05-01 14:38 | 38.70286 | 13.43863 | 21172 ft | 385 kts | 20° |
| 2026-05-01 14:38 | 38.72663 | 13.45486 | 21784 ft | 389 kts | 19° |
| 2026-05-01 14:39 | 38.75054 | 13.47121 | 22400 ft | 393 kts | 19° |
| 2026-05-01 14:39 | 38.77491 | 13.48787 | 23011 ft | 397 kts | 18° |
| 2026-05-01 14:39 | 38.79940 | 13.50474 | 23598 ft | 404 kts | 20° |
| 2026-05-01 14:39 | 38.82243 | 13.52690 | 24094 ft | 427 kts | 35° |
| 2026-05-01 14:40 | 38.84143 | 13.55740 | 24543 ft | 450 kts | 50° |
| 2026-05-01 14:40 | 38.85485 | 13.59458 | 24974 ft | 470 kts | 65° |
| 2026-05-01 14:40 | 38.86159 | 13.63630 | 25413 ft | 486 kts | 79° |
| 2026-05-01 14:40 | 38.86307 | 13.68003 | 25851 ft | 494 kts | 85° |
| 2026-05-01 14:41 | 38.86339 | 13.72430 | 26278 ft | 498 kts | 85° |
| 2026-05-01 14:41 | 38.86423 | 13.76889 | 26703 ft | 501 kts | 83° |
| 2026-05-01 14:41 | 38.86581 | 13.81366 | 27141 ft | 504 kts | 82° |
| 2026-05-01 14:41 | 38.86789 | 13.85866 | 27556 ft | 507 kts | 82° |
| 2026-05-01 14:42 | 38.87024 | 13.90398 | 27954 ft | 511 kts | 82° |
| 2026-05-01 14:42 | 38.87269 | 13.94963 | 28337 ft | 514 kts | 82° |
| 2026-05-01 14:42 | 38.87516 | 13.99552 | 28714 ft | 518 kts | 82° |
| 2026-05-01 14:42 | 38.87762 | 14.04185 | 29090 ft | 521 kts | 82° |
| 2026-05-01 14:43 | 38.88006 | 14.08834 | 29437 ft | 525 kts | 82° |
| 2026-05-01 14:43 | 38.88248 | 14.13523 | 29777 ft | 528 kts | 82° |
| 2026-05-01 14:43 | 38.88490 | 14.18246 | 30114 ft | 532 kts | 82° |
| 2026-05-01 14:43 | 38.88732 | 14.22995 | 30441 ft | 535 kts | 82° |
| 2026-05-01 14:44 | 38.88971 | 14.27763 | 30821 ft | 536 kts | 82° |
| 2026-05-01 14:44 | 38.89443 | 14.37311 | 31614 ft | 536 kts | 82° |
| 2026-05-01 14:44 | 38.89676 | 14.42089 | 32105 ft | 534 kts | 82° |
| 2026-05-01 14:45 | 38.89906 | 14.46839 | 32608 ft | 532 kts | 82° |
| 2026-05-01 14:45 | 38.90357 | 14.56265 | 33150 ft | 527 kts | 82° |
| 2026-05-01 14:46 | 38.90801 | 14.65635 | 33156 ft | 526 kts | 82° |
| 2026-05-01 14:46 | 38.91452 | 14.79684 | 33149 ft | 525 kts | 82° |
| 2026-05-01 14:47 | 38.91872 | 14.88980 | 33153 ft | 525 kts | 82° |
| 2026-05-01 14:48 | 38.92492 | 15.02997 | 33139 ft | 524 kts | 83° |
| 2026-05-01 14:48 | 38.93094 | 15.17008 | 33131 ft | 524 kts | 83° |
| 2026-05-01 14:49 | 38.93870 | 15.35678 | 33121 ft | 524 kts | 83° |
| 2026-05-01 14:50 | 38.94617 | 15.54394 | 33125 ft | 524 kts | 83° |
| 2026-05-01 14:51 | 38.95158 | 15.68427 | 33123 ft | 525 kts | 84° |
| 2026-05-01 14:52 | 38.95682 | 15.82481 | 33114 ft | 525 kts | 84° |
| 2026-05-01 14:53 | 38.96189 | 15.96538 | 33102 ft | 526 kts | 84° |
| 2026-05-01 14:53 | 38.96519 | 16.05923 | 33099 ft | 526 kts | 84° |
| 2026-05-01 14:54 | 38.96841 | 16.15323 | 33093 ft | 527 kts | 85° |
| 2026-05-01 14:54 | 38.97103 | 16.23132 | 33099 ft | 527 kts | 85° |
| 2026-05-01 14:55 | 38.97410 | 16.32517 | 33105 ft | 525 kts | 85° |
| 2026-05-01 14:55 | 38.97712 | 16.41924 | 33100 ft | 526 kts | 85° |
| 2026-05-01 14:56 | 38.98005 | 16.51306 | 33100 ft | 526 kts | 85° |
| 2026-05-01 14:56 | 38.98292 | 16.60716 | 33104 ft | 527 kts | 85° |
| 2026-05-01 14:57 | 38.98570 | 16.70138 | 33103 ft | 527 kts | 86° |
| 2026-05-01 14:57 | 38.98839 | 16.79529 | 32726 ft | 524 kts | 86° |
| 2026-05-01 14:57 | 38.98971 | 16.84232 | 32160 ft | 529 kts | 86° |
| 2026-05-01 14:58 | 38.99104 | 16.88988 | 31883 ft | 534 kts | 86° |
| 2026-05-01 14:58 | 38.99234 | 16.93753 | 31474 ft | 534 kts | 86° |
| 2026-05-01 14:58 | 38.99364 | 16.98538 | 30794 ft | 538 kts | 86° |
| 2026-05-01 14:58 | 38.99494 | 17.03363 | 30222 ft | 542 kts | 85° |
| 2026-05-01 14:59 | 38.99688 | 17.08203 | 29859 ft | 538 kts | 80° |
| 2026-05-01 14:59 | 39.00340 | 17.12885 | 29587 ft | 530 kts | 74° |
| 2026-05-01 14:59 | 39.01104 | 17.17495 | 29308 ft | 526 kts | 73° |
| 2026-05-01 14:59 | 39.01866 | 17.22078 | 29035 ft | 522 kts | 73° |
| 2026-05-01 15:00 | 39.03360 | 17.31152 | 28493 ft | 515 kts | 74° |
| 2026-05-01 15:00 | 39.04092 | 17.35637 | 28220 ft | 511 kts | 74° |
| 2026-05-01 15:00 | 39.04815 | 17.40097 | 27962 ft | 507 kts | 74° |
| 2026-05-01 15:01 | 39.05531 | 17.44523 | 27698 ft | 504 kts | 74° |
| 2026-05-01 15:01 | 39.06240 | 17.48916 | 27441 ft | 500 kts | 74° |
| 2026-05-01 15:01 | 39.06941 | 17.53276 | 27180 ft | 496 kts | 74° |
| 2026-05-01 15:01 | 39.07636 | 17.57607 | 26931 ft | 492 kts | 74° |
| 2026-05-01 15:02 | 39.08325 | 17.61908 | 26678 ft | 488 kts | 74° |
| 2026-05-01 15:02 | 39.08777 | 17.64735 | 26516 ft | 486 kts | 75° |
| 2026-05-01 15:02 | 39.09680 | 17.70402 | 26176 ft | 481 kts | 75° |
| 2026-05-01 15:02 | 39.10349 | 17.74607 | 25931 ft | 478 kts | 75° |
| 2026-05-01 15:03 | 39.11011 | 17.78786 | 25686 ft | 474 kts | 75° |
| 2026-05-01 15:03 | 39.11665 | 17.82924 | 25446 ft | 470 kts | 75° |
| 2026-05-01 15:03 | 39.12305 | 17.87025 | 25128 ft | 465 kts | 75° |
| 2026-05-01 15:03 | 39.12929 | 17.91035 | 24707 ft | 459 kts | 75° |
| 2026-05-01 15:04 | 39.13558 | 17.95090 | 24254 ft | 453 kts | 75° |
| 2026-05-01 15:04 | 39.14161 | 17.98985 | 23810 ft | 447 kts | 76° |
| 2026-05-01 15:04 | 39.14763 | 18.02879 | 23285 ft | 440 kts | 76° |
| 2026-05-01 15:04 | 39.15358 | 18.06729 | 22715 ft | 435 kts | 76° |
| 2026-05-01 15:05 | 39.15944 | 18.10534 | 22156 ft | 430 kts | 76° |
| 2026-05-01 15:05 | 39.16522 | 18.14293 | 21610 ft | 425 kts | 76° |
| 2026-05-01 15:05 | 39.17089 | 18.17997 | 21183 ft | 417 kts | 76° |
| 2026-05-01 15:05 | 39.17649 | 18.21656 | 21101 ft | 418 kts | 76° |
| 2026-05-01 15:06 | 39.18215 | 18.25351 | 21092 ft | 421 kts | 76° |
| 2026-05-01 15:06 | 39.18780 | 18.29054 | 21089 ft | 421 kts | 76° |
| 2026-05-01 15:06 | 39.19342 | 18.32751 | 21087 ft | 421 kts | 76° |
| 2026-05-01 15:06 | 39.19903 | 18.36455 | 21086 ft | 421 kts | 76° |
| 2026-05-01 15:07 | 39.20463 | 18.40154 | 21084 ft | 421 kts | 76° |
| 2026-05-01 15:07 | 39.21023 | 18.43857 | 21083 ft | 421 kts | 76° |
| 2026-05-01 15:07 | 39.21582 | 18.47561 | 21081 ft | 420 kts | 76° |
| 2026-05-01 15:07 | 39.22137 | 18.51254 | 21077 ft | 420 kts | 76° |
| 2026-05-01 15:08 | 39.22692 | 18.54951 | 21075 ft | 420 kts | 76° |
| 2026-05-01 15:08 | 39.23242 | 18.58637 | 20982 ft | 417 kts | 77° |
| 2026-05-01 15:08 | 39.23786 | 18.62297 | 20631 ft | 414 kts | 77° |
| 2026-05-01 15:08 | 39.24324 | 18.65926 | 20180 ft | 410 kts | 77° |
| 2026-05-01 15:09 | 39.24856 | 18.69519 | 19665 ft | 405 kts | 77° |
| 2026-05-01 15:09 | 39.25381 | 18.73075 | 19157 ft | 401 kts | 77° |
| 2026-05-01 15:09 | 39.25900 | 18.76591 | 18644 ft | 397 kts | 77° |
| 2026-05-01 15:09 | 39.26412 | 18.80075 | 18091 ft | 393 kts | 77° |
| 2026-05-01 15:10 | 39.26919 | 18.83528 | 17501 ft | 390 kts | 77° |
| 2026-05-01 15:10 | 39.27915 | 18.90332 | 16415 ft | 382 kts | 77° |
| 2026-05-01 15:10 | 39.28399 | 18.93644 | 15875 ft | 379 kts | 77° |
| 2026-05-01 15:11 | 39.28883 | 18.96968 | 15357 ft | 375 kts | 77° |
| 2026-05-01 15:11 | 39.29834 | 19.03522 | 14311 ft | 369 kts | 77° |
| 2026-05-01 15:11 | 39.30304 | 19.06773 | 13811 ft | 366 kts | 77° |
| 2026-05-01 15:12 | 39.30768 | 19.09986 | 13267 ft | 362 kts | 77° |
| 2026-05-01 15:12 | 39.31681 | 19.16318 | 12240 ft | 355 kts | 77° |
| 2026-05-01 15:12 | 39.32127 | 19.19433 | 11749 ft | 351 kts | 77° |
| 2026-05-01 15:13 | 39.33433 | 19.28571 | 10422 ft | 337 kts | 78° |
| 2026-05-01 15:14 | 39.34241 | 19.34268 | 10170 ft | 309 kts | 78° |
| 2026-05-01 15:14 | 39.34619 | 19.36935 | 10059 ft | 295 kts | 78° |
| 2026-05-01 15:14 | 39.35346 | 19.42050 | 10002 ft | 292 kts | 78° |
| 2026-05-01 15:15 | 39.35825 | 19.45438 | 9854 ft | 287 kts | 78° |
| 2026-05-01 15:15 | 39.36467 | 19.49989 | 9282 ft | 269 kts | 78° |
| 2026-05-01 15:16 | 39.37093 | 19.54461 | 8857 ft | 241 kts | 78° |
| 2026-05-01 15:16 | 39.37676 | 19.58624 | 8128 ft | 230 kts | 78° |
| 2026-05-01 15:17 | 39.38234 | 19.62609 | 7411 ft | 226 kts | 78° |
| 2026-05-01 15:18 | 39.39051 | 19.68485 | 6366 ft | 215 kts | 78° |
| 2026-05-01 15:18 | 39.39312 | 19.70361 | 5998 ft | 210 kts | 78° |
| 2026-05-01 15:19 | 39.39758 | 19.75817 | 4924 ft | 199 kts | 88° |
| 2026-05-01 15:19 | 39.39804 | 19.79355 | 4198 ft | 195 kts | 88° |
| 2026-05-01 15:19 | 39.39831 | 19.81101 | 3837 ft | 194 kts | 88° |
| 2026-05-01 15:20 | 39.39881 | 19.84612 | 3139 ft | 196 kts | 88° |
| 2026-05-01 15:20 | 39.39905 | 19.86370 | 3007 ft | 197 kts | 88° |
| 2026-05-01 15:20 | 39.40046 | 19.88133 | 2995 ft | 196 kts | 74° |
| 2026-05-01 15:21 | 39.40441 | 19.89819 | 2995 ft | 196 kts | 72° |
| 2026-05-01 15:21 | 39.40836 | 19.91508 | 2992 ft | 196 kts | 72° |
| 2026-05-01 15:21 | 39.41223 | 19.93201 | 2985 ft | 196 kts | 72° |
| 2026-05-01 15:21 | 39.41606 | 19.94896 | 2965 ft | 195 kts | 72° |
| 2026-05-01 15:22 | 39.43288 | 19.97269 | 2566 ft | 179 kts | 6° |
| 2026-05-01 15:22 | 39.44420 | 19.97057 | 2489 ft | 153 kts | 340° |
| 2026-05-01 15:22 | 39.45367 | 19.96662 | 2356 ft | 136 kts | 341° |
| 2026-05-01 15:23 | 39.46248 | 19.96322 | 2145 ft | 131 kts | 341° |
| 2026-05-01 15:23 | 39.47121 | 19.95999 | 1867 ft | 130 kts | 342° |
| 2026-05-01 15:23 | 39.47983 | 19.95681 | 1656 ft | 130 kts | 341° |
| 2026-05-01 15:23 | 39.48854 | 19.95357 | 1699 ft | 132 kts | 341° |
| 2026-05-01 15:24 | 39.49725 | 19.95029 | 1689 ft | 130 kts | 341° |
| 2026-05-01 15:24 | 39.50578 | 19.94626 | 1695 ft | 131 kts | 332° |
| 2026-05-01 15:24 | 39.51395 | 19.94120 | 1668 ft | 128 kts | 332° |
| 2026-05-01 15:24 | 39.52193 | 19.93633 | 1468 ft | 127 kts | 334° |
| 2026-05-01 15:25 | 39.53015 | 19.93176 | 1126 ft | 129 kts | 334° |
| 2026-05-01 15:25 | 39.53852 | 19.92805 | 814 ft | 126 kts | 340° |
| 2026-05-01 15:25 | 39.54693 | 19.92600 | 580 ft | 121 kts | 348° |
| 2026-05-01 15:25 | 39.55566 | 19.92485 | 462 ft | 129 kts | 348° |
| 2026-05-01 15:26 | 39.56444 | 19.92233 | 438 ft | 128 kts | 341° |
| 2026-05-01 15:26 | 39.57315 | 19.91981 | 321 ft | 127 kts | 343° |
| 2026-05-01 15:26 | 39.58180 | 19.91728 | 280 ft | 128 kts | 344° |
| 2026-05-01 15:26 | 39.59049 | 19.91516 | 102 ft | 129 kts | 344° |
| 2026-05-01 15:27 | 39.59881 | 19.91284 | 23 ft | 105 kts | 350° |
| 2026-05-01 15:27 | 39.60360 | 19.91168 | 19 ft | 22 kts | 347° |
| 2026-05-01 15:27 | 39.60486 | 19.91143 | 19 ft | 20 kts | 6° |
| 2026-05-01 15:28 | 39.60597 | 19.91219 | 18 ft | 0 kts | 43° |
| 2026-05-01 15:29 | 39.60599 | 19.91221 | 18 ft | 2 kts | 41° |
| 2026-05-01 15:29 | 39.60631 | 19.91230 | 18 ft | 7 kts | 0° |
| 2026-05-01 15:29 | 39.60685 | 19.91236 | 18 ft | 3 kts | 52° |
| 2026-05-01 15:30 | 39.60696 | 19.91300 | 18 ft | 3 kts | 78° |
| 2026-05-01 15:31 | 39.60706 | 19.91351 | 18 ft | 0 kts | 76° |